sensor_id;sensor_type;location;lat;lon;timestamp;P1;durP1;ratioP1;P2;durP2;ratioP2
74892;SDS011;63446;56.272;43.922;2023-02-28T00:01:09;9.90;;;3.15;;
74892;SDS011;63446;56.272;43.922;2023-02-28T00:03:34;9.52;;;3.70;;
74892;SDS011;63446;56.272;43.922;2023-02-28T00:06:01;10.18;;;3.55;;
74892;SDS011;63446;56.272;43.922;2023-02-28T00:08:28;11.27;;;3.63;;
74892;SDS011;63446;56.272;43.922;2023-02-28T00:10:54;11.02;;;3.28;;
74892;SDS011;63446;56.272;43.922;2023-02-28T00:13:19;9.00;;;3.40;;
74892;SDS011;63446;56.272;43.922;2023-02-28T00:15:45;8.02;;;3.28;;
74892;SDS011;63446;56.272;43.922;2023-02-28T00:18:11;9.82;;;3.38;;
74892;SDS011;63446;56.272;43.922;2023-02-28T00:20:37;12.80;;;3.60;;
74892;SDS011;63446;56.272;43.922;2023-02-28T00:23:03;8.93;;;3.00;;
74892;SDS011;63446;56.272;43.922;2023-02-28T00:25:29;11.37;;;3.47;;
74892;SDS011;63446;56.272;43.922;2023-02-28T00:27:55;12.48;;;3.67;;
74892;SDS011;63446;56.272;43.922;2023-02-28T00:30:21;9.70;;;3.75;;
74892;SDS011;63446;56.272;43.922;2023-02-28T00:32:49;11.13;;;3.50;;
74892;SDS011;63446;56.272;43.922;2023-02-28T00:35:16;9.47;;;3.30;;
74892;SDS011;63446;56.272;43.922;2023-02-28T00:37:42;12.57;;;3.70;;
74892;SDS011;63446;56.272;43.922;2023-02-28T00:40:09;9.52;;;3.13;;
74892;SDS011;63446;56.272;43.922;2023-02-28T00:42:38;11.60;;;3.72;;
74892;SDS011;63446;56.272;43.922;2023-02-28T00:45:04;9.23;;;3.22;;
74892;SDS011;63446;56.272;43.922;2023-02-28T00:47:31;8.40;;;3.13;;
74892;SDS011;63446;56.272;43.922;2023-02-28T00:49:57;10.02;;;3.47;;
74892;SDS011;63446;56.272;43.922;2023-02-28T00:52:23;11.25;;;3.70;;
74892;SDS011;63446;56.272;43.922;2023-02-28T00:54:49;12.10;;;4.20;;
74892;SDS011;63446;56.272;43.922;2023-02-28T00:57:14;13.73;;;4.40;;
74892;SDS011;63446;56.272;43.922;2023-02-28T00:59:41;12.95;;;4.68;;
74892;SDS011;63446;56.272;43.922;2023-02-28T01:02:07;14.63;;;4.70;;
74892;SDS011;63446;56.272;43.922;2023-02-28T01:04:35;13.23;;;4.53;;
74892;SDS011;63446;56.272;43.922;2023-02-28T01:07:02;12.68;;;5.03;;
74892;SDS011;63446;56.272;43.922;2023-02-28T01:09:28;11.68;;;3.80;;
74892;SDS011;63446;56.272;43.922;2023-02-28T01:11:54;12.73;;;4.18;;
74892;SDS011;63446;56.272;43.922;2023-02-28T01:14:20;13.07;;;4.20;;
74892;SDS011;63446;56.272;43.922;2023-02-28T01:16:45;13.57;;;4.55;;
74892;SDS011;63446;56.272;43.922;2023-02-28T01:19:11;12.40;;;4.40;;
74892;SDS011;63446;56.272;43.922;2023-02-28T01:21:37;14.75;;;4.03;;
74892;SDS011;63446;56.272;43.922;2023-02-28T01:24:05;11.25;;;3.50;;
74892;SDS011;63446;56.272;43.922;2023-02-28T01:26:34;8.93;;;3.22;;
74892;SDS011;63446;56.272;43.922;2023-02-28T01:29:00;12.03;;;3.67;;
74892;SDS011;63446;56.272;43.922;2023-02-28T01:31:26;10.38;;;3.50;;
74892;SDS011;63446;56.272;43.922;2023-02-28T01:33:52;8.93;;;3.30;;
74892;SDS011;63446;56.272;43.922;2023-02-28T01:36:19;9.93;;;3.50;;
74892;SDS011;63446;56.272;43.922;2023-02-28T01:38:47;8.60;;;3.40;;
74892;SDS011;63446;56.272;43.922;2023-02-28T01:41:21;10.05;;;3.30;;
74892;SDS011;63446;56.272;43.922;2023-02-28T01:46:15;10.25;;;3.63;;
74892;SDS011;63446;56.272;43.922;2023-02-28T01:48:43;13.05;;;3.55;;
74892;SDS011;63446;56.272;43.922;2023-02-28T01:51:34;11.27;;;2.70;;
74892;SDS011;63446;56.272;43.922;2023-02-28T01:54:17;9.93;;;2.97;;
74892;SDS011;63446;56.272;43.922;2023-02-28T01:56:47;8.85;;;3.05;;
74892;SDS011;63446;56.272;43.922;2023-02-28T01:59:22;9.70;;;2.88;;
74892;SDS011;63446;56.272;43.922;2023-02-28T02:02:14;10.57;;;3.20;;
74892;SDS011;63446;56.272;43.922;2023-02-28T02:04:46;11.27;;;3.33;;
74892;SDS011;63446;56.272;43.922;2023-02-28T02:07:38;8.15;;;2.85;;
74892;SDS011;63446;56.272;43.922;2023-02-28T02:15:53;9.25;;;2.58;;
74892;SDS011;63446;56.272;43.922;2023-02-28T02:18:46;8.40;;;2.97;;
74892;SDS011;63446;56.272;43.922;2023-02-28T02:21:24;12.48;;;2.75;;
74892;SDS011;63446;56.272;43.922;2023-02-28T02:35:12;11.75;;;2.58;;
74892;SDS011;63446;56.272;43.922;2023-02-28T02:41:17;9.25;;;2.40;;
74892;SDS011;63446;56.272;43.922;2023-02-28T02:46:34;6.30;;;2.10;;
74892;SDS011;63446;56.272;43.922;2023-02-28T02:49:06;7.50;;;2.38;;
74892;SDS011;63446;56.272;43.922;2023-02-28T02:51:36;8.95;;;2.67;;
74892;SDS011;63446;56.272;43.922;2023-02-28T02:56:55;8.02;;;2.55;;
74892;SDS011;63446;56.272;43.922;2023-02-28T02:59:25;8.67;;;2.70;;
74892;SDS011;63446;56.272;43.922;2023-02-28T03:02:04;11.73;;;2.88;;
74892;SDS011;63446;56.272;43.922;2023-02-28T03:04:36;7.88;;;2.47;;
74892;SDS011;63446;56.272;43.922;2023-02-28T03:07:09;8.13;;;2.80;;
74892;SDS011;63446;56.272;43.922;2023-02-28T03:09:36;8.27;;;2.72;;
74892;SDS011;63446;56.272;43.922;2023-02-28T03:12:06;13.03;;;3.03;;
74892;SDS011;63446;56.272;43.922;2023-02-28T03:14:43;6.93;;;2.30;;
74892;SDS011;63446;56.272;43.922;2023-02-28T03:17:24;5.95;;;2.03;;
74892;SDS011;63446;56.272;43.922;2023-02-28T03:22:40;7.40;;;2.28;;
74892;SDS011;63446;56.272;43.922;2023-02-28T03:34:09;8.30;;;2.30;;
74892;SDS011;63446;56.272;43.922;2023-02-28T03:36:46;8.50;;;2.60;;
74892;SDS011;63446;56.272;43.922;2023-02-28T03:39:27;7.80;;;2.03;;
74892;SDS011;63446;56.272;43.922;2023-02-28T03:42:00;9.85;;;2.83;;
74892;SDS011;63446;56.272;43.922;2023-02-28T03:44:43;8.13;;;2.45;;
74892;SDS011;63446;56.272;43.922;2023-02-28T03:47:18;12.60;;;2.60;;
74892;SDS011;63446;56.272;43.922;2023-02-28T03:50:07;8.80;;;2.78;;
74892;SDS011;63446;56.272;43.922;2023-02-28T03:53:15;10.80;;;2.33;;
74892;SDS011;63446;56.272;43.922;2023-02-28T03:55:44;11.40;;;2.75;;
74892;SDS011;63446;56.272;43.922;2023-02-28T03:58:15;8.95;;;2.53;;
74892;SDS011;63446;56.272;43.922;2023-02-28T04:03:47;7.65;;;2.28;;
74892;SDS011;63446;56.272;43.922;2023-02-28T04:06:15;7.90;;;2.20;;
74892;SDS011;63446;56.272;43.922;2023-02-28T04:08:43;7.75;;;2.13;;
74892;SDS011;63446;56.272;43.922;2023-02-28T04:13:54;9.18;;;2.22;;
74892;SDS011;63446;56.272;43.922;2023-02-28T04:16:21;8.30;;;2.17;;
74892;SDS011;63446;56.272;43.922;2023-02-28T04:18:46;8.48;;;2.50;;
74892;SDS011;63446;56.272;43.922;2023-02-28T04:21:12;6.75;;;1.88;;
74892;SDS011;63446;56.272;43.922;2023-02-28T04:23:38;7.72;;;2.20;;
74892;SDS011;63446;56.272;43.922;2023-02-28T04:26:04;8.27;;;2.65;;
74892;SDS011;63446;56.272;43.922;2023-02-28T04:28:31;8.38;;;2.40;;
74892;SDS011;63446;56.272;43.922;2023-02-28T04:30:59;8.43;;;2.13;;
74892;SDS011;63446;56.272;43.922;2023-02-28T04:33:28;6.97;;;2.40;;
74892;SDS011;63446;56.272;43.922;2023-02-28T04:36:04;7.70;;;2.50;;
74892;SDS011;63446;56.272;43.922;2023-02-28T04:38:33;5.60;;;2.33;;
74892;SDS011;63446;56.272;43.922;2023-02-28T04:41:03;8.15;;;2.75;;
74892;SDS011;63446;56.272;43.922;2023-02-28T04:43:31;6.50;;;2.45;;
74892;SDS011;63446;56.272;43.922;2023-02-28T04:45:58;6.33;;;2.40;;
74892;SDS011;63446;56.272;43.922;2023-02-28T04:48:30;6.38;;;2.22;;
74892;SDS011;63446;56.272;43.922;2023-02-28T04:51:03;5.97;;;2.40;;
74892;SDS011;63446;56.272;43.922;2023-02-28T04:53:32;6.07;;;2.63;;
74892;SDS011;63446;56.272;43.922;2023-02-28T04:55:59;7.13;;;2.90;;
74892;SDS011;63446;56.272;43.922;2023-02-28T04:58:25;5.77;;;2.70;;
74892;SDS011;63446;56.272;43.922;2023-02-28T05:00:54;5.93;;;2.65;;
74892;SDS011;63446;56.272;43.922;2023-02-28T05:03:26;6.55;;;2.63;;
74892;SDS011;63446;56.272;43.922;2023-02-28T05:05:53;6.10;;;2.45;;
74892;SDS011;63446;56.272;43.922;2023-02-28T05:08:19;5.10;;;2.07;;
74892;SDS011;63446;56.272;43.922;2023-02-28T05:10:45;5.78;;;2.72;;
74892;SDS011;63446;56.272;43.922;2023-02-28T05:13:11;5.80;;;2.20;;
74892;SDS011;63446;56.272;43.922;2023-02-28T05:15:37;4.93;;;2.30;;
74892;SDS011;63446;56.272;43.922;2023-02-28T05:18:04;7.35;;;2.30;;
74892;SDS011;63446;56.272;43.922;2023-02-28T05:20:30;5.78;;;2.53;;
74892;SDS011;63446;56.272;43.922;2023-02-28T05:22:57;5.63;;;2.22;;
74892;SDS011;63446;56.272;43.922;2023-02-28T05:25:24;8.43;;;2.50;;
74892;SDS011;63446;56.272;43.922;2023-02-28T05:27:50;6.75;;;2.40;;
74892;SDS011;63446;56.272;43.922;2023-02-28T05:30:17;7.32;;;2.70;;
74892;SDS011;63446;56.272;43.922;2023-02-28T05:32:43;6.63;;;2.63;;
74892;SDS011;63446;56.272;43.922;2023-02-28T05:35:09;6.17;;;2.50;;
74892;SDS011;63446;56.272;43.922;2023-02-28T05:37:37;5.75;;;2.33;;
74892;SDS011;63446;56.272;43.922;2023-02-28T05:40:03;6.15;;;2.47;;
74892;SDS011;63446;56.272;43.922;2023-02-28T05:42:35;6.10;;;2.40;;
74892;SDS011;63446;56.272;43.922;2023-02-28T05:45:03;5.85;;;2.25;;
74892;SDS011;63446;56.272;43.922;2023-02-28T05:47:30;7.20;;;2.55;;
74892;SDS011;63446;56.272;43.922;2023-02-28T05:49:55;6.90;;;2.25;;
74892;SDS011;63446;56.272;43.922;2023-02-28T05:52:22;7.53;;;2.50;;
74892;SDS011;63446;56.272;43.922;2023-02-28T05:54:48;7.63;;;2.30;;
74892;SDS011;63446;56.272;43.922;2023-02-28T05:57:15;7.43;;;2.58;;
74892;SDS011;63446;56.272;43.922;2023-02-28T05:59:41;9.43;;;2.85;;
74892;SDS011;63446;56.272;43.922;2023-02-28T06:02:16;8.25;;;3.03;;
74892;SDS011;63446;56.272;43.922;2023-02-28T06:04:43;7.35;;;2.85;;
74892;SDS011;63446;56.272;43.922;2023-02-28T06:07:09;8.67;;;2.77;;
74892;SDS011;63446;56.272;43.922;2023-02-28T06:09:36;7.05;;;2.50;;
74892;SDS011;63446;56.272;43.922;2023-02-28T06:12:03;6.82;;;2.50;;
74892;SDS011;63446;56.272;43.922;2023-02-28T06:14:31;7.50;;;2.90;;
74892;SDS011;63446;56.272;43.922;2023-02-28T06:16:58;9.25;;;3.33;;
74892;SDS011;63446;56.272;43.922;2023-02-28T06:19:26;9.57;;;3.03;;
74892;SDS011;63446;56.272;43.922;2023-02-28T06:21:53;9.73;;;3.22;;
74892;SDS011;63446;56.272;43.922;2023-02-28T06:24:20;8.48;;;2.80;;
74892;SDS011;63446;56.272;43.922;2023-02-28T06:26:49;9.43;;;3.20;;
74892;SDS011;63446;56.272;43.922;2023-02-28T06:29:15;9.50;;;2.90;;
74892;SDS011;63446;56.272;43.922;2023-02-28T06:31:44;10.87;;;3.20;;
74892;SDS011;63446;56.272;43.922;2023-02-28T06:34:12;9.95;;;3.17;;
74892;SDS011;63446;56.272;43.922;2023-02-28T06:36:39;7.85;;;2.95;;
74892;SDS011;63446;56.272;43.922;2023-02-28T06:39:07;7.30;;;2.90;;
74892;SDS011;63446;56.272;43.922;2023-02-28T06:41:34;8.43;;;3.25;;
74892;SDS011;63446;56.272;43.922;2023-02-28T06:44:05;9.33;;;3.33;;
74892;SDS011;63446;56.272;43.922;2023-02-28T06:46:38;9.90;;;3.15;;
74892;SDS011;63446;56.272;43.922;2023-02-28T06:49:08;10.00;;;3.17;;
74892;SDS011;63446;56.272;43.922;2023-02-28T06:51:35;12.32;;;3.80;;
74892;SDS011;63446;56.272;43.922;2023-02-28T06:54:02;9.90;;;3.65;;
74892;SDS011;63446;56.272;43.922;2023-02-28T06:56:28;9.70;;;3.00;;
74892;SDS011;63446;56.272;43.922;2023-02-28T06:58:55;8.80;;;3.75;;
74892;SDS011;63446;56.272;43.922;2023-02-28T07:01:22;9.93;;;3.20;;
74892;SDS011;63446;56.272;43.922;2023-02-28T07:03:48;8.65;;;3.30;;
74892;SDS011;63446;56.272;43.922;2023-02-28T07:06:18;7.18;;;2.78;;
74892;SDS011;63446;56.272;43.922;2023-02-28T07:08:46;8.47;;;2.73;;
74892;SDS011;63446;56.272;43.922;2023-02-28T07:11:13;9.30;;;3.00;;
74892;SDS011;63446;56.272;43.922;2023-02-28T07:13:39;7.70;;;2.97;;
74892;SDS011;63446;56.272;43.922;2023-02-28T07:16:05;8.43;;;3.00;;
74892;SDS011;63446;56.272;43.922;2023-02-28T07:18:34;8.55;;;2.67;;
74892;SDS011;63446;56.272;43.922;2023-02-28T07:21:01;8.35;;;3.00;;
74892;SDS011;63446;56.272;43.922;2023-02-28T07:23:28;8.82;;;3.40;;
74892;SDS011;63446;56.272;43.922;2023-02-28T07:25:55;10.00;;;3.77;;
74892;SDS011;63446;56.272;43.922;2023-02-28T07:28:20;8.45;;;3.00;;
74892;SDS011;63446;56.272;43.922;2023-02-28T07:30:47;8.63;;;2.88;;
74892;SDS011;63446;56.272;43.922;2023-02-28T07:33:13;8.00;;;3.40;;
74892;SDS011;63446;56.272;43.922;2023-02-28T07:35:40;9.98;;;3.47;;
74892;SDS011;63446;56.272;43.922;2023-02-28T07:38:08;9.00;;;3.20;;
74892;SDS011;63446;56.272;43.922;2023-02-28T07:40:34;10.88;;;3.45;;
74892;SDS011;63446;56.272;43.922;2023-02-28T07:43:01;8.57;;;3.30;;
74892;SDS011;63446;56.272;43.922;2023-02-28T07:45:27;8.20;;;3.42;;
74892;SDS011;63446;56.272;43.922;2023-02-28T07:47:54;8.70;;;3.03;;
74892;SDS011;63446;56.272;43.922;2023-02-28T07:50:22;9.70;;;2.77;;
74892;SDS011;63446;56.272;43.922;2023-02-28T07:52:49;8.13;;;2.85;;
74892;SDS011;63446;56.272;43.922;2023-02-28T07:55:15;8.27;;;3.10;;
74892;SDS011;63446;56.272;43.922;2023-02-28T07:57:42;8.52;;;3.03;;
74892;SDS011;63446;56.272;43.922;2023-02-28T08:00:09;7.93;;;2.87;;
74892;SDS011;63446;56.272;43.922;2023-02-28T08:02:40;7.82;;;2.67;;
74892;SDS011;63446;56.272;43.922;2023-02-28T08:05:06;7.80;;;2.72;;
74892;SDS011;63446;56.272;43.922;2023-02-28T08:07:32;8.05;;;2.95;;
74892;SDS011;63446;56.272;43.922;2023-02-28T08:09:58;7.60;;;2.70;;
74892;SDS011;63446;56.272;43.922;2023-02-28T08:12:25;9.52;;;3.03;;
74892;SDS011;63446;56.272;43.922;2023-02-28T08:14:52;9.13;;;3.20;;
74892;SDS011;63446;56.272;43.922;2023-02-28T08:17:18;8.53;;;3.30;;
74892;SDS011;63446;56.272;43.922;2023-02-28T08:19:45;8.00;;;3.40;;
74892;SDS011;63446;56.272;43.922;2023-02-28T08:22:12;9.18;;;3.45;;
74892;SDS011;63446;56.272;43.922;2023-02-28T08:24:39;10.65;;;3.85;;
74892;SDS011;63446;56.272;43.922;2023-02-28T08:27:08;9.35;;;3.20;;
74892;SDS011;63446;56.272;43.922;2023-02-28T08:29:36;8.10;;;2.70;;
74892;SDS011;63446;56.272;43.922;2023-02-28T08:32:03;10.55;;;2.95;;
74892;SDS011;63446;56.272;43.922;2023-02-28T08:34:30;5.72;;;2.40;;
74892;SDS011;63446;56.272;43.922;2023-02-28T08:36:55;7.30;;;2.67;;
74892;SDS011;63446;56.272;43.922;2023-02-28T08:39:22;8.32;;;3.30;;
74892;SDS011;63446;56.272;43.922;2023-02-28T08:41:48;8.87;;;2.77;;
74892;SDS011;63446;56.272;43.922;2023-02-28T08:44:14;9.20;;;2.70;;
74892;SDS011;63446;56.272;43.922;2023-02-28T08:46:40;6.32;;;2.50;;
74892;SDS011;63446;56.272;43.922;2023-02-28T08:49:06;7.47;;;2.80;;
74892;SDS011;63446;56.272;43.922;2023-02-28T08:51:32;11.13;;;2.70;;
74892;SDS011;63446;56.272;43.922;2023-02-28T08:53:58;7.20;;;2.60;;
74892;SDS011;63446;56.272;43.922;2023-02-28T08:56:26;7.63;;;2.83;;
74892;SDS011;63446;56.272;43.922;2023-02-28T08:58:54;10.70;;;3.22;;
74892;SDS011;63446;56.272;43.922;2023-02-28T09:01:25;7.53;;;2.83;;
74892;SDS011;63446;56.272;43.922;2023-02-28T09:03:53;7.30;;;2.80;;
74892;SDS011;63446;56.272;43.922;2023-02-28T09:06:20;6.73;;;2.70;;
74892;SDS011;63446;56.272;43.922;2023-02-28T09:08:48;8.10;;;2.97;;
74892;SDS011;63446;56.272;43.922;2023-02-28T09:11:15;6.47;;;2.75;;
74892;SDS011;63446;56.272;43.922;2023-02-28T09:13:41;10.23;;;2.88;;
74892;SDS011;63446;56.272;43.922;2023-02-28T09:16:10;9.80;;;3.10;;
74892;SDS011;63446;56.272;43.922;2023-02-28T09:18:37;7.33;;;3.10;;
74892;SDS011;63446;56.272;43.922;2023-02-28T09:21:04;8.00;;;2.80;;
74892;SDS011;63446;56.272;43.922;2023-02-28T09:23:31;8.52;;;2.88;;
74892;SDS011;63446;56.272;43.922;2023-02-28T09:25:57;6.32;;;2.30;;
74892;SDS011;63446;56.272;43.922;2023-02-28T09:28:23;8.97;;;3.73;;
74892;SDS011;63446;56.272;43.922;2023-02-28T09:30:52;10.15;;;3.10;;
74892;SDS011;63446;56.272;43.922;2023-02-28T09:33:19;11.43;;;3.33;;
74892;SDS011;63446;56.272;43.922;2023-02-28T09:35:47;8.63;;;2.97;;
74892;SDS011;63446;56.272;43.922;2023-02-28T09:38:14;11.50;;;2.85;;
74892;SDS011;63446;56.272;43.922;2023-02-28T09:40:56;8.03;;;2.93;;
74892;SDS011;63446;56.272;43.922;2023-02-28T09:43:26;7.35;;;2.63;;
74892;SDS011;63446;56.272;43.922;2023-02-28T09:48:33;7.20;;;2.90;;
74892;SDS011;63446;56.272;43.922;2023-02-28T09:51:05;8.20;;;3.05;;
74892;SDS011;63446;56.272;43.922;2023-02-28T09:53:49;7.70;;;2.73;;
74892;SDS011;63446;56.272;43.922;2023-02-28T09:56:17;8.20;;;3.17;;
74892;SDS011;63446;56.272;43.922;2023-02-28T09:58:54;7.07;;;2.92;;
74892;SDS011;63446;56.272;43.922;2023-02-28T10:01:36;6.80;;;2.83;;
74892;SDS011;63446;56.272;43.922;2023-02-28T10:04:22;7.22;;;2.42;;
74892;SDS011;63446;56.272;43.922;2023-02-28T10:07:20;8.15;;;3.10;;
74892;SDS011;63446;56.272;43.922;2023-02-28T10:09:56;7.13;;;2.83;;
74892;SDS011;63446;56.272;43.922;2023-02-28T10:12:25;6.30;;;2.53;;
74892;SDS011;63446;56.272;43.922;2023-02-28T10:14:55;8.83;;;3.17;;
74892;SDS011;63446;56.272;43.922;2023-02-28T10:17:28;6.10;;;2.65;;
74892;SDS011;63446;56.272;43.922;2023-02-28T10:25:24;6.63;;;2.90;;
74892;SDS011;63446;56.272;43.922;2023-02-28T10:27:53;8.37;;;3.00;;
74892;SDS011;63446;56.272;43.922;2023-02-28T10:30:24;9.75;;;3.45;;
74892;SDS011;63446;56.272;43.922;2023-02-28T10:32:50;9.20;;;3.45;;
74892;SDS011;63446;56.272;43.922;2023-02-28T10:35:21;10.60;;;3.00;;
74892;SDS011;63446;56.272;43.922;2023-02-28T10:37:59;11.27;;;3.00;;
74892;SDS011;63446;56.272;43.922;2023-02-28T10:40:29;7.32;;;2.80;;
74892;SDS011;63446;56.272;43.922;2023-02-28T10:43:00;10.77;;;3.20;;
74892;SDS011;63446;56.272;43.922;2023-02-28T10:45:26;8.88;;;3.25;;
74892;SDS011;63446;56.272;43.922;2023-02-28T10:47:56;7.18;;;2.65;;
74892;SDS011;63446;56.272;43.922;2023-02-28T10:53:05;8.20;;;3.08;;
74892;SDS011;63446;56.272;43.922;2023-02-28T10:55:37;7.90;;;2.67;;
74892;SDS011;63446;56.272;43.922;2023-02-28T10:58:03;8.70;;;3.35;;
74892;SDS011;63446;56.272;43.922;2023-02-28T11:00:45;9.27;;;2.97;;
74892;SDS011;63446;56.272;43.922;2023-02-28T11:03:28;9.43;;;3.17;;
74892;SDS011;63446;56.272;43.922;2023-02-28T11:05:56;8.40;;;2.90;;
74892;SDS011;63446;56.272;43.922;2023-02-28T11:08:23;9.05;;;2.85;;
74892;SDS011;63446;56.272;43.922;2023-02-28T11:10:59;7.35;;;2.90;;
74892;SDS011;63446;56.272;43.922;2023-02-28T11:13:34;9.07;;;2.90;;
74892;SDS011;63446;56.272;43.922;2023-02-28T11:16:04;10.73;;;3.57;;
74892;SDS011;63446;56.272;43.922;2023-02-28T11:21:07;9.45;;;3.05;;
74892;SDS011;63446;56.272;43.922;2023-02-28T11:23:36;7.00;;;3.10;;
74892;SDS011;63446;56.272;43.922;2023-02-28T11:26:06;8.98;;;3.05;;
74892;SDS011;63446;56.272;43.922;2023-02-28T11:28:35;9.43;;;3.50;;
74892;SDS011;63446;56.272;43.922;2023-02-28T11:36:22;9.50;;;3.00;;
74892;SDS011;63446;56.272;43.922;2023-02-28T11:38:55;8.05;;;2.90;;
74892;SDS011;63446;56.272;43.922;2023-02-28T11:55:39;8.07;;;2.60;;
74892;SDS011;63446;56.272;43.922;2023-02-28T11:58:20;7.80;;;2.88;;
74892;SDS011;63446;56.272;43.922;2023-02-28T12:01:21;9.07;;;3.00;;
74892;SDS011;63446;56.272;43.922;2023-02-28T12:04:01;8.23;;;2.67;;
74892;SDS011;63446;56.272;43.922;2023-02-28T12:14:49;8.40;;;2.80;;
74892;SDS011;63446;56.272;43.922;2023-02-28T12:17:23;8.80;;;2.90;;
74892;SDS011;63446;56.272;43.922;2023-02-28T12:28:25;10.05;;;3.25;;
74892;SDS011;63446;56.272;43.922;2023-02-28T12:31:00;7.82;;;3.33;;
74892;SDS011;63446;56.272;43.922;2023-02-28T12:33:36;8.73;;;3.28;;
74892;SDS011;63446;56.272;43.922;2023-02-28T12:36:11;9.60;;;3.27;;
74892;SDS011;63446;56.272;43.922;2023-02-28T12:41:18;8.52;;;3.35;;
74892;SDS011;63446;56.272;43.922;2023-02-28T12:43:49;7.93;;;3.00;;
74892;SDS011;63446;56.272;43.922;2023-02-28T12:46:34;8.23;;;2.60;;
74892;SDS011;63446;56.272;43.922;2023-02-28T12:49:15;6.93;;;2.20;;
74892;SDS011;63446;56.272;43.922;2023-02-28T12:51:47;8.65;;;2.47;;
74892;SDS011;63446;56.272;43.922;2023-02-28T12:54:21;6.93;;;2.67;;
74892;SDS011;63446;56.272;43.922;2023-02-28T12:57:02;7.03;;;2.63;;
74892;SDS011;63446;56.272;43.922;2023-02-28T13:10:38;7.90;;;2.15;;
74892;SDS011;63446;56.272;43.922;2023-02-28T13:13:19;8.45;;;2.40;;
74892;SDS011;63446;56.272;43.922;2023-02-28T13:15:58;6.93;;;2.30;;
74892;SDS011;63446;56.272;43.922;2023-02-28T13:18:29;6.03;;;2.30;;
74892;SDS011;63446;56.272;43.922;2023-02-28T13:21:08;7.38;;;2.38;;
74892;SDS011;63446;56.272;43.922;2023-02-28T13:24:36;6.05;;;2.15;;
74892;SDS011;63446;56.272;43.922;2023-02-28T13:34:36;9.68;;;2.78;;
74892;SDS011;63446;56.272;43.922;2023-02-28T13:42:36;6.93;;;2.57;;
74892;SDS011;63446;56.272;43.922;2023-02-28T13:45:24;6.22;;;2.20;;
74892;SDS011;63446;56.272;43.922;2023-02-28T13:48:20;5.63;;;2.17;;
74892;SDS011;63446;56.272;43.922;2023-02-28T13:50:54;8.45;;;2.72;;
74892;SDS011;63446;56.272;43.922;2023-02-28T13:53:34;7.53;;;2.97;;
74892;SDS011;63446;56.272;43.922;2023-02-28T13:56:36;6.77;;;2.63;;
74892;SDS011;63446;56.272;43.922;2023-02-28T13:59:48;6.80;;;2.40;;
74892;SDS011;63446;56.272;43.922;2023-02-28T14:05:13;7.65;;;2.75;;
74892;SDS011;63446;56.272;43.922;2023-02-28T14:07:46;9.68;;;2.83;;
74892;SDS011;63446;56.272;43.922;2023-02-28T14:10:31;8.53;;;2.77;;
74892;SDS011;63446;56.272;43.922;2023-02-28T14:18:21;8.60;;;3.00;;
74892;SDS011;63446;56.272;43.922;2023-02-28T14:20:52;7.75;;;2.90;;
74892;SDS011;63446;56.272;43.922;2023-02-28T14:26:32;9.35;;;3.03;;
74892;SDS011;63446;56.272;43.922;2023-02-28T14:35:00;9.95;;;3.22;;
74892;SDS011;63446;56.272;43.922;2023-02-28T14:37:46;8.30;;;3.10;;
74892;SDS011;63446;56.272;43.922;2023-02-28T14:40:17;10.80;;;3.53;;
74892;SDS011;63446;56.272;43.922;2023-02-28T14:42:59;10.80;;;3.40;;
74892;SDS011;63446;56.272;43.922;2023-02-28T14:45:30;9.95;;;3.08;;
74892;SDS011;63446;56.272;43.922;2023-02-28T14:48:00;9.50;;;2.80;;
74892;SDS011;63446;56.272;43.922;2023-02-28T14:50:29;9.60;;;3.07;;
74892;SDS011;63446;56.272;43.922;2023-02-28T14:52:58;9.38;;;3.08;;
74892;SDS011;63446;56.272;43.922;2023-02-28T14:55:26;8.02;;;2.58;;
74892;SDS011;63446;56.272;43.922;2023-02-28T14:57:59;9.70;;;3.30;;
74892;SDS011;63446;56.272;43.922;2023-02-28T15:00:30;11.10;;;3.40;;
74892;SDS011;63446;56.272;43.922;2023-02-28T15:03:27;12.53;;;3.57;;
74892;SDS011;63446;56.272;43.922;2023-02-28T15:05:59;11.05;;;3.25;;
74892;SDS011;63446;56.272;43.922;2023-02-28T15:08:28;10.90;;;3.40;;
74892;SDS011;63446;56.272;43.922;2023-02-28T15:11:02;9.95;;;3.08;;
74892;SDS011;63446;56.272;43.922;2023-02-28T15:13:41;9.68;;;3.30;;
74892;SDS011;63446;56.272;43.922;2023-02-28T15:16:11;10.80;;;3.40;;
74892;SDS011;63446;56.272;43.922;2023-02-28T15:21:13;9.40;;;3.42;;
74892;SDS011;63446;56.272;43.922;2023-02-28T15:24:07;10.13;;;3.35;;
74892;SDS011;63446;56.272;43.922;2023-02-28T15:26:40;10.23;;;3.00;;
74892;SDS011;63446;56.272;43.922;2023-02-28T15:31:49;10.68;;;3.80;;
74892;SDS011;63446;56.272;43.922;2023-02-28T15:34:37;11.48;;;3.47;;
74892;SDS011;63446;56.272;43.922;2023-02-28T15:40:10;10.52;;;3.45;;
74892;SDS011;63446;56.272;43.922;2023-02-28T15:42:40;12.13;;;3.60;;
74892;SDS011;63446;56.272;43.922;2023-02-28T15:45:26;8.82;;;3.50;;
74892;SDS011;63446;56.272;43.922;2023-02-28T15:47:54;9.13;;;3.42;;
74892;SDS011;63446;56.272;43.922;2023-02-28T15:50:20;9.82;;;3.15;;
74892;SDS011;63446;56.272;43.922;2023-02-28T15:52:45;8.90;;;3.50;;
74892;SDS011;63446;56.272;43.922;2023-02-28T15:55:18;10.43;;;3.47;;
74892;SDS011;63446;56.272;43.922;2023-02-28T15:57:47;15.20;;;4.50;;
74892;SDS011;63446;56.272;43.922;2023-02-28T16:00:18;9.60;;;3.50;;
74892;SDS011;63446;56.272;43.922;2023-02-28T16:02:47;11.68;;;3.85;;
74892;SDS011;63446;56.272;43.922;2023-02-28T16:07:40;16.10;;;5.47;;
74892;SDS011;63446;56.272;43.922;2023-02-28T16:10:09;15.45;;;4.43;;
74892;SDS011;63446;56.272;43.922;2023-02-28T16:12:38;11.07;;;4.27;;
74892;SDS011;63446;56.272;43.922;2023-02-28T16:15:09;13.13;;;4.78;;
74892;SDS011;63446;56.272;43.922;2023-02-28T16:17:39;11.60;;;4.50;;
74892;SDS011;63446;56.272;43.922;2023-02-28T16:20:11;11.82;;;4.50;;
74892;SDS011;63446;56.272;43.922;2023-02-28T16:22:39;11.75;;;4.63;;
74892;SDS011;63446;56.272;43.922;2023-02-28T16:25:11;12.18;;;4.18;;
74892;SDS011;63446;56.272;43.922;2023-02-28T16:27:40;11.40;;;3.83;;
74892;SDS011;63446;56.272;43.922;2023-02-28T16:30:16;10.75;;;4.25;;
74892;SDS011;63446;56.272;43.922;2023-02-28T16:32:45;14.77;;;4.17;;
74892;SDS011;63446;56.272;43.922;2023-02-28T16:35:12;12.55;;;4.75;;
74892;SDS011;63446;56.272;43.922;2023-02-28T16:37:39;13.48;;;4.55;;
74892;SDS011;63446;56.272;43.922;2023-02-28T16:40:07;13.98;;;4.68;;
74892;SDS011;63446;56.272;43.922;2023-02-28T16:42:43;10.45;;;4.60;;
74892;SDS011;63446;56.272;43.922;2023-02-28T16:45:20;14.97;;;4.63;;
74892;SDS011;63446;56.272;43.922;2023-02-28T16:47:49;11.57;;;4.60;;
74892;SDS011;63446;56.272;43.922;2023-02-28T16:50:16;10.98;;;4.63;;
74892;SDS011;63446;56.272;43.922;2023-02-28T16:52:46;12.52;;;4.65;;
74892;SDS011;63446;56.272;43.922;2023-02-28T16:55:13;14.77;;;4.80;;
74892;SDS011;63446;56.272;43.922;2023-02-28T16:57:39;10.50;;;4.57;;
74892;SDS011;63446;56.272;43.922;2023-02-28T17:00:06;10.75;;;3.85;;
74892;SDS011;63446;56.272;43.922;2023-02-28T17:02:35;13.98;;;4.45;;
74892;SDS011;63446;56.272;43.922;2023-02-28T17:05:02;18.75;;;4.72;;
74892;SDS011;63446;56.272;43.922;2023-02-28T17:07:29;12.40;;;4.70;;
74892;SDS011;63446;56.272;43.922;2023-02-28T17:09:54;12.50;;;5.17;;
74892;SDS011;63446;56.272;43.922;2023-02-28T17:12:20;12.75;;;4.80;;
74892;SDS011;63446;56.272;43.922;2023-02-28T17:14:46;13.13;;;4.60;;
74892;SDS011;63446;56.272;43.922;2023-02-28T17:17:21;12.20;;;4.65;;
74892;SDS011;63446;56.272;43.922;2023-02-28T17:19:48;12.70;;;4.70;;
74892;SDS011;63446;56.272;43.922;2023-02-28T17:22:14;13.87;;;5.13;;